Finita R — E.C.O.E — position and weather

sailwx.info

Track history (hours):
 
Tides and Currents Weather Stations Pressure Air Temp Water Temp Dewpoint Dewpoint Depression Visibility Wind Speed Wind Dir Waves Ship Positions

Finita R

Last reported at 2018-Feb-24 14:41 UTC. Time now 2018-Feb-25 14:10 UTC.
Position N 39°29' W 009°55'.

Length 100 m; draft 4.2 m.

Type: Cargo ship. MMSI: 225388000.

Date/timePositionNaut miles runAvg speedWind from/ knotsBaromVisibWave heightAir tempDewpointWater temp
2018-Feb-24 14:41N 39°29' W 009°55'211.8
2018-Feb-24 14:30N 39°27' W 009°55'611.7
2018-Feb-24 14:00N 39°21' W 009°54'611.6
2018-Feb-24 13:30N 39°15' W 009°54'611.6
2018-Feb-24 13:00N 39°09' W 009°53'611.4
2018-Feb-24 12:30N 39°04' W 009°52'611.6
2018-Feb-24 12:00N 38°58' W 009°52'611.5
2018-Feb-24 11:30N 38°52' W 009°51'611.6
2018-Feb-24 11:00N 38°46' W 009°51'611.5
2018-Feb-24 10:30N 38°41' W 009°50'510.0
2018-Feb-24 10:00N 38°36' W 009°47'611.5
2018-Feb-24 09:30N 38°36' W 009°40'611.5
2018-Feb-24 09:00N 38°36' W 009°32'611.5
2018-Feb-24 08:30N 38°36' W 009°25'511.1
2018-Feb-24 08:00N 38°39' W 009°20'5 9.8
2018-Feb-24 07:30N 38°41' W 009°14'5 9.2
2018-Feb-24 07:00N 38°41' W 009°08'3 5.5
2018-Feb-24 06:29N 38°40' W 009°04'0 0.0
2018-Feb-24 05:56N 38°40' W 009°04'0 0.0
2018-Feb-24 05:29N 38°40' W 009°04'0 0.0
2018-Feb-24 04:50N 38°40' W 009°04'0 0.0
2018-Feb-24 04:20N 38°40' W 009°04'0 0.0
2018-Feb-24 03:56N 38°40' W 009°04'0 0.0
2018-Feb-24 03:29N 38°40' W 009°04'0 0.0
2018-Feb-24 02:59N 38°40' W 009°04'0 0.0
2018-Feb-24 02:17N 38°40' W 009°04'0 0.0
2018-Feb-24 01:53N 38°40' W 009°04'0 0.0
2018-Feb-24 01:26N 38°40' W 009°04'0 0.0
2018-Feb-23 23:56N 38°40' W 009°04'0 0.0
2018-Feb-23 23:23N 38°40' W 009°04'0 0.0
2018-Feb-23 22:56N 38°40' W 009°04'0 0.0
2018-Feb-23 22:26N 38°40' W 009°04'0 0.0
2018-Feb-23 21:56N 38°40' W 009°04'0 0.0
2018-Feb-23 20:29N 38°40' W 009°04'0 0.0
2018-Feb-23 19:38N 38°40' W 009°04'0 0.0
2018-Feb-23 19:20N 38°40' W 009°04'0 0.0
2018-Feb-23 18:56N 38°40' W 009°04'0 0.0
2018-Feb-23 18:26N 38°40' W 009°04'0 0.0
2018-Feb-23 17:20N 38°40' W 009°04'0 0.0
2018-Feb-23 16:53N 38°40' W 009°04'0 0.0
2018-Feb-23 16:17N 38°40' W 009°04'0 0.0
2018-Feb-23 14:17N 38°40' W 009°04'0 0.0
2018-Feb-23 13:32N 38°40' W 009°04'0 0.0
2018-Feb-23 13:17N 38°40' W 009°04'0 0.0
2018-Feb-23 11:38N 38°40' W 009°04'0 0.0
2018-Feb-23 11:26N 38°40' W 009°04'0 0.0
2018-Feb-23 10:56N 38°40' W 009°04'0 0.0
2018-Feb-23 10:29N 38°40' W 009°04'0 0.0
2018-Feb-23 09:53N 38°40' W 009°04'0 0.0
2018-Feb-23 09:29N 38°40' W 009°04'0 0.0
2018-Feb-23 08:59N 38°40' W 009°04'0 0.0
2018-Feb-23 08:20N 38°40' W 009°04'0 0.0
2018-Feb-23 07:56N 38°40' W 009°04'0 0.0
2018-Feb-23 07:14N 38°40' W 009°04'0 0.0
2018-Feb-23 06:56N 38°40' W 009°04'0 0.0
2018-Feb-23 06:08N 38°40' W 009°04'0 0.0
2018-Feb-23 05:50N 38°40' W 009°04'0 0.0
2018-Feb-23 05:26N 38°40' W 009°04'0 0.0
2018-Feb-23 04:56N 38°40' W 009°04'0 0.0
2018-Feb-23 03:56N 38°40' W 009°04'0 0.0
2018-Feb-23 03:26N 38°40' W 009°04'0 0.0
2018-Feb-23 03:00N 38°40' W 009°04'0 0.4
2018-Feb-23 02:30N 38°40' W 009°05'2 4.9
2018-Feb-23 02:00N 38°41' W 009°08'5 9.5
2018-Feb-23 01:30N 38°41' W 009°14'4 8.7
2018-Feb-23 01:01N 38°40' W 009°19'4 9.0
2018-Feb-23 00:31N 38°37' W 009°23'510.1
2018-Feb-23 00:00N 38°32' W 009°25'510.9
2018-Feb-22 23:30N 38°26' W 009°24'611.0
2018-Feb-22 23:00N 38°21' W 009°24'510.9
2018-Feb-22 22:30N 38°16' W 009°24'510.6
2018-Feb-22 22:00N 38°10' W 009°24'510.5
2018-Feb-22 21:30N 38°05' W 009°24'510.7
2018-Feb-22 21:00N 37°60' W 009°24'511.0
2018-Feb-22 20:31N 37°54' W 009°24'611.0
2018-Feb-22 20:00N 37°49' W 009°24'510.9
2018-Feb-22 19:30N 37°43' W 009°23'611.1
2018-Feb-22 19:00N 37°38' W 009°23'510.5
2018-Feb-22 18:30N 37°32' W 009°23'510.5
2018-Feb-22 18:01N 37°27' W 009°23'510.5
2018-Feb-22 17:30N 37°22' W 009°23'510.8
2018-Feb-22 17:00N 37°17' W 009°22'510.9
2018-Feb-22 16:30N 37°11' W 009°21'510.8
2018-Feb-22 16:00N 37°06' W 009°21'1010.8
2018-Feb-22 15:06N 36°56' W 009°20'210.9
2018-Feb-22 14:56N 36°54' W 009°19'510.6
2018-Feb-22 14:30N 36°51' W 009°16'1710.3
2018-Feb-22 12:51N 36°41' W 008°58'511.0
2018-Feb-22 12:21N 36°36' W 008°57'  
2018-Feb-20 05:18N 28°48' W 014°51'310.4
2018-Feb-20 05:00N 28°46' W 014°53'510.5
2018-Feb-20 04:30N 28°41' W 014°56'510.6
2018-Feb-20 04:00N 28°37' W 014°59'510.5
2018-Feb-20 03:30N 28°33' W 015°03'510.5
2018-Feb-20 03:00N 28°29' W 015°06'510.3
2018-Feb-20 02:30N 28°24' W 015°10'510.2
2018-Feb-20 02:00N 28°20' W 015°13'510.5
2018-Feb-20 01:30N 28°16' W 015°16'510.3
2018-Feb-20 01:00N 28°11' W 015°19'510.1
2018-Feb-20 00:30N 28°07' W 015°22'4 7.9
2018-Feb-20 00:00N 28°03' W 015°22'510.0
2018-Feb-19 23:30N 27°58' W 015°20'5 9.8
2018-Feb-19 23:00N 27°54' W 015°21'  
2018-Feb-15 19:25N 27°51' W 015°23'511.8
2018-Feb-15 19:00N 27°55' W 015°20'611.7
2018-Feb-15 18:30N 28°01' W 015°21'611.6
2018-Feb-15 18:00N 28°06' W 015°23'2 3.3
2018-Feb-15 17:30N 28°08' W 015°22'4 8.5
2018-Feb-15 17:00N 28°12' W 015°23'611.2
2018-Feb-15 16:30N 28°14' W 015°29'611.5
2018-Feb-15 16:00N 28°14' W 015°36'611.1
2018-Feb-15 15:30N 28°14' W 015°42'510.9
2018-Feb-15 15:01N 28°15' W 015°48'611.1
2018-Feb-15 14:30N 28°15' W 015°54'511.0
2018-Feb-15 14:00N 28°18' W 015°60'611.3
2018-Feb-15 13:30N 28°22' W 016°05'611.5
2018-Feb-15 13:00N 28°25' W 016°10'5 9.9
2018-Feb-15 12:30N 28°29' W 016°13'1 1.4
2018-Feb-15 12:00N 28°30' W 016°12'0 0.0
2018-Feb-15 11:29N 28°30' W 016°12'0 0.0
2018-Feb-15 10:59N 28°30' W 016°12'0 0.0
2018-Feb-15 10:29N 28°30' W 016°12'0 0.0
2018-Feb-15 09:59N 28°30' W 016°12'0 0.0
2018-Feb-15 09:29N 28°30' W 016°12'0 0.0
2018-Feb-15 08:59N 28°30' W 016°12'0 0.0
2018-Feb-15 08:29N 28°30' W 016°12'0 0.0
2018-Feb-15 07:59N 28°30' W 016°12'0 0.0
2018-Feb-15 07:29N 28°30' W 016°12'0 0.0
2018-Feb-15 06:59N 28°30' W 016°12'0 0.0
2018-Feb-15 06:23N 28°30' W 016°12'0 0.0
2018-Feb-15 05:59N 28°30' W 016°12'0 0.0
2018-Feb-15 05:29N 28°30' W 016°12'0 0.0
2018-Feb-15 04:59N 28°30' W 016°12'0 0.0
2018-Feb-15 04:29N 28°30' W 016°12'0 0.0
2018-Feb-15 03:59N 28°30' W 016°12'0 0.0
2018-Feb-15 03:29N 28°30' W 016°12'0 0.0
2018-Feb-15 02:59N 28°30' W 016°12'0 0.0
2018-Feb-15 02:29N 28°30' W 016°12'0 0.0
2018-Feb-15 01:59N 28°30' W 016°12'0 0.0
2018-Feb-15 01:29N 28°30' W 016°12'0 0.0
2018-Feb-15 00:59N 28°30' W 016°12'0 0.0
2018-Feb-15 00:29N 28°30' W 016°12'0 0.0
2018-Feb-14 23:59N 28°30' W 016°12'0 0.0
2018-Feb-14 23:29N 28°30' W 016°12'0 0.0
2018-Feb-14 22:59N 28°30' W 016°12'0 0.0
2018-Feb-14 22:29N 28°30' W 016°12'0 0.0
2018-Feb-14 21:59N 28°30' W 016°12'0 0.0
2018-Feb-14 21:29N 28°30' W 016°12'0 0.0
2018-Feb-14 20:59N 28°30' W 016°12'0 0.0
2018-Feb-14 20:29N 28°30' W 016°12'0 0.0
2018-Feb-14 19:59N 28°30' W 016°12'0 0.0
2018-Feb-14 19:29N 28°30' W 016°12'0 0.0
2018-Feb-14 18:59N 28°30' W 016°12'0 0.0
2018-Feb-14 18:29N 28°30' W 016°12'0 0.0
2018-Feb-14 17:59N 28°30' W 016°12'0 0.0
2018-Feb-14 17:29N 28°30' W 016°12'0 0.0
2018-Feb-14 16:59N 28°30' W 016°12'0 0.0
2018-Feb-14 16:29N 28°30' W 016°12'0 0.0
2018-Feb-14 15:58N 28°30' W 016°12'0 0.0
2018-Feb-14 15:29N 28°30' W 016°12'0 0.0
2018-Feb-14 14:59N 28°30' W 016°12'  
Track history (hours):
 
Tides and Currents Weather Stations Pressure Air Temp Water Temp Dewpoint Dewpoint Depression Visibility Wind Speed Wind Dir Waves Ship Positions

Finita R

Last reported at 2018-Feb-24 14:41 UTC. Time now 2018-Feb-25 14:10 UTC.
Position N 39°29' W 009°55'.

Length 100 m; draft 4.2 m.

Type: Cargo ship. MMSI: 225388000.

Date/timePositionNaut miles runAvg speedWind from/ knotsBaromVisibWave heightAir tempDewpointWater temp
2018-Feb-24 14:41N 39°29' W 009°55'211.8
2018-Feb-24 14:30N 39°27' W 009°55'611.7
2018-Feb-24 14:00N 39°21' W 009°54'611.6
2018-Feb-24 13:30N 39°15' W 009°54'611.6
2018-Feb-24 13:00N 39°09' W 009°53'611.4
2018-Feb-24 12:30N 39°04' W 009°52'611.6
2018-Feb-24 12:00N 38°58' W 009°52'611.5
2018-Feb-24 11:30N 38°52' W 009°51'611.6
2018-Feb-24 11:00N 38°46' W 009°51'611.5
2018-Feb-24 10:30N 38°41' W 009°50'510.0
2018-Feb-24 10:00N 38°36' W 009°47'611.5
2018-Feb-24 09:30N 38°36' W 009°40'611.5
2018-Feb-24 09:00N 38°36' W 009°32'611.5
2018-Feb-24 08:30N 38°36' W 009°25'511.1
2018-Feb-24 08:00N 38°39' W 009°20'5 9.8
2018-Feb-24 07:30N 38°41' W 009°14'5 9.2
2018-Feb-24 07:00N 38°41' W 009°08'3 5.5
2018-Feb-24 06:29N 38°40' W 009°04'0 0.0
2018-Feb-24 05:56N 38°40' W 009°04'0 0.0
2018-Feb-24 05:29N 38°40' W 009°04'0 0.0
2018-Feb-24 04:50N 38°40' W 009°04'0 0.0
2018-Feb-24 04:20N 38°40' W 009°04'0 0.0
2018-Feb-24 03:56N 38°40' W 009°04'0 0.0
2018-Feb-24 03:29N 38°40' W 009°04'0 0.0
2018-Feb-24 02:59N 38°40' W 009°04'0 0.0
2018-Feb-24 02:17N 38°40' W 009°04'0 0.0
2018-Feb-24 01:53N 38°40' W 009°04'0 0.0
2018-Feb-24 01:26N 38°40' W 009°04'0 0.0
2018-Feb-23 23:56N 38°40' W 009°04'0 0.0
2018-Feb-23 23:23N 38°40' W 009°04'0 0.0
2018-Feb-23 22:56N 38°40' W 009°04'0 0.0
2018-Feb-23 22:26N 38°40' W 009°04'0 0.0
2018-Feb-23 21:56N 38°40' W 009°04'0 0.0
2018-Feb-23 20:29N 38°40' W 009°04'0 0.0
2018-Feb-23 19:38N 38°40' W 009°04'0 0.0
2018-Feb-23 19:20N 38°40' W 009°04'0 0.0
2018-Feb-23 18:56N 38°40' W 009°04'0 0.0
2018-Feb-23 18:26N 38°40' W 009°04'0 0.0
2018-Feb-23 17:20N 38°40' W 009°04'0 0.0
2018-Feb-23 16:53N 38°40' W 009°04'0 0.0
2018-Feb-23 16:17N 38°40' W 009°04'0 0.0
2018-Feb-23 14:17N 38°40' W 009°04'0 0.0
2018-Feb-23 13:32N 38°40' W 009°04'0 0.0
2018-Feb-23 13:17N 38°40' W 009°04'0 0.0
2018-Feb-23 11:38N 38°40' W 009°04'0 0.0
2018-Feb-23 11:26N 38°40' W 009°04'0 0.0
2018-Feb-23 10:56N 38°40' W 009°04'0 0.0
2018-Feb-23 10:29N 38°40' W 009°04'0 0.0
2018-Feb-23 09:53N 38°40' W 009°04'0 0.0
2018-Feb-23 09:29N 38°40' W 009°04'0 0.0
2018-Feb-23 08:59N 38°40' W 009°04'0 0.0
2018-Feb-23 08:20N 38°40' W 009°04'0 0.0
2018-Feb-23 07:56N 38°40' W 009°04'0 0.0
2018-Feb-23 07:14N 38°40' W 009°04'0 0.0
2018-Feb-23 06:56N 38°40' W 009°04'0 0.0
2018-Feb-23 06:08N 38°40' W 009°04'0 0.0
2018-Feb-23 05:50N 38°40' W 009°04'0 0.0
2018-Feb-23 05:26N 38°40' W 009°04'0 0.0
2018-Feb-23 04:56N 38°40' W 009°04'0 0.0
2018-Feb-23 03:56N 38°40' W 009°04'0 0.0
2018-Feb-23 03:26N 38°40' W 009°04'0 0.0
2018-Feb-23 03:00N 38°40' W 009°04'0 0.4
2018-Feb-23 02:30N 38°40' W 009°05'2 4.9
2018-Feb-23 02:00N 38°41' W 009°08'5 9.5
2018-Feb-23 01:30N 38°41' W 009°14'4 8.7
2018-Feb-23 01:01N 38°40' W 009°19'4 9.0
2018-Feb-23 00:31N 38°37' W 009°23'510.1
2018-Feb-23 00:00N 38°32' W 009°25'510.9
2018-Feb-22 23:30N 38°26' W 009°24'611.0
2018-Feb-22 23:00N 38°21' W 009°24'510.9
2018-Feb-22 22:30N 38°16' W 009°24'510.6
2018-Feb-22 22:00N 38°10' W 009°24'510.5
2018-Feb-22 21:30N 38°05' W 009°24'510.7
2018-Feb-22 21:00N 37°60' W 009°24'511.0
2018-Feb-22 20:31N 37°54' W 009°24'611.0
2018-Feb-22 20:00N 37°49' W 009°24'510.9
2018-Feb-22 19:30N 37°43' W 009°23'611.1
2018-Feb-22 19:00N 37°38' W 009°23'510.5
2018-Feb-22 18:30N 37°32' W 009°23'510.5
2018-Feb-22 18:01N 37°27' W 009°23'510.5
2018-Feb-22 17:30N 37°22' W 009°23'510.8
2018-Feb-22 17:00N 37°17' W 009°22'510.9
2018-Feb-22 16:30N 37°11' W 009°21'510.8
2018-Feb-22 16:00N 37°06' W 009°21'1010.8
2018-Feb-22 15:06N 36°56' W 009°20'210.9
2018-Feb-22 14:56N 36°54' W 009°19'510.6
2018-Feb-22 14:30N 36°51' W 009°16'1710.3
2018-Feb-22 12:51N 36°41' W 008°58'511.0
2018-Feb-22 12:21N 36°36' W 008°57'  
2018-Feb-20 05:18N 28°48' W 014°51'310.4
2018-Feb-20 05:00N 28°46' W 014°53'510.5
2018-Feb-20 04:30N 28°41' W 014°56'510.6
2018-Feb-20 04:00N 28°37' W 014°59'510.5
2018-Feb-20 03:30N 28°33' W 015°03'510.5
2018-Feb-20 03:00N 28°29' W 015°06'510.3
2018-Feb-20 02:30N 28°24' W 015°10'510.2
2018-Feb-20 02:00N 28°20' W 015°13'510.5
2018-Feb-20 01:30N 28°16' W 015°16'510.3
2018-Feb-20 01:00N 28°11' W 015°19'510.1
2018-Feb-20 00:30N 28°07' W 015°22'4 7.9
2018-Feb-20 00:00N 28°03' W 015°22'510.0
2018-Feb-19 23:30N 27°58' W 015°20'5 9.8
2018-Feb-19 23:00N 27°54' W 015°21'  
2018-Feb-15 19:25N 27°51' W 015°23'511.8
2018-Feb-15 19:00N 27°55' W 015°20'611.7
2018-Feb-15 18:30N 28°01' W 015°21'611.6
2018-Feb-15 18:00N 28°06' W 015°23'2 3.3
2018-Feb-15 17:30N 28°08' W 015°22'4 8.5
2018-Feb-15 17:00N 28°12' W 015°23'611.2
2018-Feb-15 16:30N 28°14' W 015°29'611.5
2018-Feb-15 16:00N 28°14' W 015°36'611.1
2018-Feb-15 15:30N 28°14' W 015°42'510.9
2018-Feb-15 15:01N 28°15' W 015°48'611.1
2018-Feb-15 14:30N 28°15' W 015°54'511.0
2018-Feb-15 14:00N 28°18' W 015°60'611.3
2018-Feb-15 13:30N 28°22' W 016°05'611.5
2018-Feb-15 13:00N 28°25' W 016°10'5 9.9
2018-Feb-15 12:30N 28°29' W 016°13'1 1.4
2018-Feb-15 12:00N 28°30' W 016°12'0 0.0
2018-Feb-15 11:29N 28°30' W 016°12'0 0.0
2018-Feb-15 10:59N 28°30' W 016°12'0 0.0
2018-Feb-15 10:29N 28°30' W 016°12'0 0.0
2018-Feb-15 09:59N 28°30' W 016°12'0 0.0
2018-Feb-15 09:29N 28°30' W 016°12'0 0.0
2018-Feb-15 08:59N 28°30' W 016°12'0 0.0
2018-Feb-15 08:29N 28°30' W 016°12'0 0.0
2018-Feb-15 07:59N 28°30' W 016°12'0 0.0
2018-Feb-15 07:29N 28°30' W 016°12'0 0.0
2018-Feb-15 06:59N 28°30' W 016°12'0 0.0
2018-Feb-15 06:23N 28°30' W 016°12'0 0.0
2018-Feb-15 05:59N 28°30' W 016°12'0 0.0
2018-Feb-15 05:29N 28°30' W 016°12'0 0.0
2018-Feb-15 04:59N 28°30' W 016°12'0 0.0
2018-Feb-15 04:29N 28°30' W 016°12'0 0.0
2018-Feb-15 03:59N 28°30' W 016°12'0 0.0
2018-Feb-15 03:29N 28°30' W 016°12'0 0.0
2018-Feb-15 02:59N 28°30' W 016°12'0 0.0
2018-Feb-15 02:29N 28°30' W 016°12'0 0.0
2018-Feb-15 01:59N 28°30' W 016°12'0 0.0
2018-Feb-15 01:29N 28°30' W 016°12'0 0.0
2018-Feb-15 00:59N 28°30' W 016°12'0 0.0
2018-Feb-15 00:29N 28°30' W 016°12'0 0.0
2018-Feb-14 23:59N 28°30' W 016°12'0 0.0
2018-Feb-14 23:29N 28°30' W 016°12'0 0.0
2018-Feb-14 22:59N 28°30' W 016°12'0 0.0
2018-Feb-14 22:29N 28°30' W 016°12'0 0.0
2018-Feb-14 21:59N 28°30' W 016°12'0 0.0
2018-Feb-14 21:29N 28°30' W 016°12'0 0.0
2018-Feb-14 20:59N 28°30' W 016°12'0 0.0
2018-Feb-14 20:29N 28°30' W 016°12'0 0.0
2018-Feb-14 19:59N 28°30' W 016°12'0 0.0
2018-Feb-14 19:29N 28°30' W 016°12'0 0.0
2018-Feb-14 18:59N 28°30' W 016°12'0 0.0
2018-Feb-14 18:29N 28°30' W 016°12'0 0.0
2018-Feb-14 17:59N 28°30' W 016°12'0 0.0
2018-Feb-14 17:29N 28°30' W 016°12'0 0.0
2018-Feb-14 16:59N 28°30' W 016°12'0 0.0
2018-Feb-14 16:29N 28°30' W 016°12'0 0.0
2018-Feb-14 15:58N 28°30' W 016°12'0 0.0
2018-Feb-14 15:29N 28°30' W 016°12'0 0.0
2018-Feb-14 14:59N 28°30' W 016°12'  

Dump ship's entire track history